Annis, ID

4:40 PM MDT on May 22, 2015 (GMT -0600)
Rexburg-Madison County | | Change Station
CLOSE
Current Station
Airport
Location: Rexburg,
Elevation: 4859 ft
Nearby Weather Stations

Elev 4859 ft 43.83 °N, 111.81 °W | Updated 47 minutes ago

Overcast
Overcast
66 °F
Feels Like 66 °F
N
0
Wind Variable Wind from North

Today
High -- | Low -- °F
--% Chance of Precip.
Yesterday
High -- | Low -- °F
Precip. -- in
5:55 AM 8:53 PM
Waxing Crescent, 24% visible
Pressure 29.76 in
Visibility 10.0 miles
Clouds Clear
Dew Point 37 °F
Humidity 34%
Rainfall 0.00 in
Snow Depth Not available.
UV 8 out of 12
Pollen 6.40 out of 12
Air Quality Not available.
Flu Activity No Activity
METAR KRXE 222153Z AUTO 00000KT 10SM CLR 19/03 A2985 RMK AO2 SLP078 T01890028

More Conditions Fewer Conditions

Pressure 29.76 in
Visibility 10.0 miles
Clouds Clear
Dew Point 37 °F
Humidity 34%
Rainfall 0.00 in
Snow Depth Not available.
UV 8 out of 12
Pollen 6.40 out of 12
Air Quality Not available.
Flu Activity No Activity
METAR KRXE 222153Z AUTO 00000KT 10SM CLR 19/03 A2985 RMK AO2 SLP078 T01890028

More Conditions Fewer Conditions

10-Day Weather Forecast

Almanac

Astronomy

May. 22, 2015 Rise Set
Actual Time
Civil Twilight
Nautical Twilight
Astronomical Twilight
Moon
Length of Visible Light
Length of Day
Tomorrow will be .
, % of the Moon is Illuminated

Today's Extremes

State Highs State Lows

Community

WunderPhotos

Upload Photos

1,823,323 photos uploaded!

WunderBlogs® & News

Nearby

Air Quality

  Air Quality AQ Index Pollutant
Not available.

Snow Depth

Station Depth Elevation

Earthquake Activity

City Distance Mag. Time & Date
Minimum magnitude displayed is 2.5.

Coastal Water Temperatures

Place Temperature

Stations

Nearby Weather Stations

Station Location Temp. Windchill Dew Point Humidity Wind Precip. Elev Updated Type